sensor_id;sensor_type;location;lat;lon;timestamp;P1;P2;P0
77320;PMS7003;66382;52.252;8.780;2024-03-02T00:00:54;13.50;13.50;9.75
77320;PMS7003;66382;52.252;8.780;2024-03-02T00:03:19;18.00;18.00;13.25
77320;PMS7003;66382;52.252;8.780;2024-03-02T00:05:48;19.25;19.25;14.75
77320;PMS7003;66382;52.252;8.780;2024-03-02T00:08:14;22.25;22.25;13.50
77320;PMS7003;66382;52.252;8.780;2024-03-02T00:10:48;18.50;18.50;13.75
77320;PMS7003;66382;52.252;8.780;2024-03-02T00:13:13;15.50;15.50;11.75
77320;PMS7003;66382;52.252;8.780;2024-03-02T00:15:42;19.50;19.50;15.00
77320;PMS7003;66382;52.252;8.780;2024-03-02T00:18:13;20.25;20.25;15.75
77320;PMS7003;66382;52.252;8.780;2024-03-02T00:20:42;25.00;25.00;17.00
77320;PMS7003;66382;52.252;8.780;2024-03-02T00:23:08;23.50;23.50;15.25
77320;PMS7003;66382;52.252;8.780;2024-03-02T00:25:36;23.25;23.25;17.25
77320;PMS7003;66382;52.252;8.780;2024-03-02T00:28:04;27.00;27.00;17.75
77320;PMS7003;66382;52.252;8.780;2024-03-02T00:30:36;45.00;39.00;27.00
77320;PMS7003;66382;52.252;8.780;2024-03-02T00:33:30;30.75;30.75;21.75
77320;PMS7003;66382;52.252;8.780;2024-03-02T00:35:57;16.25;16.25;11.00
77320;PMS7003;66382;52.252;8.780;2024-03-02T00:38:22;15.25;15.25;12.25
77320;PMS7003;66382;52.252;8.780;2024-03-02T00:40:48;16.25;15.25;12.25
77320;PMS7003;66382;52.252;8.780;2024-03-02T00:43:20;14.50;14.50;12.00
77320;PMS7003;66382;52.252;8.780;2024-03-02T00:46:07;16.00;16.00;12.00
77320;PMS7003;66382;52.252;8.780;2024-03-02T00:48:34;18.75;17.75;12.00
77320;PMS7003;66382;52.252;8.780;2024-03-02T00:51:00;14.75;14.75;9.25
77320;PMS7003;66382;52.252;8.780;2024-03-02T00:53:25;20.00;20.00;13.75
77320;PMS7003;66382;52.252;8.780;2024-03-02T00:55:51;15.25;15.25;12.00
77320;PMS7003;66382;52.252;8.780;2024-03-02T00:58:17;17.00;17.00;12.75
77320;PMS7003;66382;52.252;8.780;2024-03-02T01:00:42;16.75;16.75;13.75
77320;PMS7003;66382;52.252;8.780;2024-03-02T01:03:08;17.25;17.25;12.75
77320;PMS7003;66382;52.252;8.780;2024-03-02T01:05:35;17.00;17.00;13.00
77320;PMS7003;66382;52.252;8.780;2024-03-02T01:08:00;16.00;15.00;12.00
77320;PMS7003;66382;52.252;8.780;2024-03-02T01:10:26;17.25;17.25;12.25
77320;PMS7003;66382;52.252;8.780;2024-03-02T01:12:51;15.00;15.00;13.00
77320;PMS7003;66382;52.252;8.780;2024-03-02T01:15:17;18.00;16.25;14.00
77320;PMS7003;66382;52.252;8.780;2024-03-02T01:17:42;15.25;15.25;11.50
77320;PMS7003;66382;52.252;8.780;2024-03-02T01:20:08;20.50;20.50;13.25
77320;PMS7003;66382;52.252;8.780;2024-03-02T01:22:35;16.00;16.00;11.50
77320;PMS7003;66382;52.252;8.780;2024-03-02T01:25:01;17.25;17.25;13.00
77320;PMS7003;66382;52.252;8.780;2024-03-02T01:27:26;17.00;16.75;12.50
77320;PMS7003;66382;52.252;8.780;2024-03-02T01:29:52;19.25;19.25;13.00
77320;PMS7003;66382;52.252;8.780;2024-03-02T01:32:17;17.75;17.75;12.00
77320;PMS7003;66382;52.252;8.780;2024-03-02T01:34:43;18.25;18.25;12.25
77320;PMS7003;66382;52.252;8.780;2024-03-02T01:37:08;18.50;18.50;14.00
77320;PMS7003;66382;52.252;8.780;2024-03-02T01:39:35;18.75;18.75;13.75
77320;PMS7003;66382;52.252;8.780;2024-03-02T01:42:00;17.50;17.50;14.25
77320;PMS7003;66382;52.252;8.780;2024-03-02T01:44:26;20.75;20.75;15.25
77320;PMS7003;66382;52.252;8.780;2024-03-02T01:46:51;23.00;23.00;15.50
77320;PMS7003;66382;52.252;8.780;2024-03-02T01:49:17;42.25;37.75;25.00
77320;PMS7003;66382;52.252;8.780;2024-03-02T01:51:42;22.50;22.50;15.00
77320;PMS7003;66382;52.252;8.780;2024-03-02T01:54:08;18.50;18.50;14.25
77320;PMS7003;66382;52.252;8.780;2024-03-02T01:56:35;26.25;26.25;20.00
77320;PMS7003;66382;52.252;8.780;2024-03-02T01:59:00;33.50;29.00;18.50
77320;PMS7003;66382;52.252;8.780;2024-03-02T02:01:26;16.00;16.00;12.00
77320;PMS7003;66382;52.252;8.780;2024-03-02T02:03:51;26.25;26.25;16.50
77320;PMS7003;66382;52.252;8.780;2024-03-02T02:06:17;20.75;20.75;15.00
77320;PMS7003;66382;52.252;8.780;2024-03-02T02:08:42;22.75;20.00;14.00
77320;PMS7003;66382;52.252;8.780;2024-03-02T02:11:08;20.00;20.00;14.00
77320;PMS7003;66382;52.252;8.780;2024-03-02T02:13:35;18.50;18.25;11.50
77320;PMS7003;66382;52.252;8.780;2024-03-02T02:16:04;20.25;20.25;14.00
77320;PMS7003;66382;52.252;8.780;2024-03-02T02:18:30;16.00;15.50;11.00
77320;PMS7003;66382;52.252;8.780;2024-03-02T02:20:55;16.00;16.00;13.00
77320;PMS7003;66382;52.252;8.780;2024-03-02T02:23:22;15.00;15.00;12.00
77320;PMS7003;66382;52.252;8.780;2024-03-02T02:25:48;15.25;15.25;11.25
77320;PMS7003;66382;52.252;8.780;2024-03-02T02:28:13;16.25;16.25;11.00
77320;PMS7003;66382;52.252;8.780;2024-03-02T02:30:38;17.75;17.50;12.50
77320;PMS7003;66382;52.252;8.780;2024-03-02T02:33:04;16.00;16.00;13.00
77320;PMS7003;66382;52.252;8.780;2024-03-02T02:35:29;16.25;15.25;11.50
77320;PMS7003;66382;52.252;8.780;2024-03-02T02:37:55;14.50;14.50;12.75
77320;PMS7003;66382;52.252;8.780;2024-03-02T02:40:23;16.00;16.00;13.00
77320;PMS7003;66382;52.252;8.780;2024-03-02T02:42:49;16.00;16.00;12.75
77320;PMS7003;66382;52.252;8.780;2024-03-02T02:45:15;16.25;16.25;13.00
77320;PMS7003;66382;52.252;8.780;2024-03-02T02:47:40;14.25;14.25;11.00
77320;PMS7003;66382;52.252;8.780;2024-03-02T02:50:07;18.50;18.50;12.00
77320;PMS7003;66382;52.252;8.780;2024-03-02T02:52:33;17.75;17.75;13.00
77320;PMS7003;66382;52.252;8.780;2024-03-02T02:54:59;14.75;14.75;12.00
77320;PMS7003;66382;52.252;8.780;2024-03-02T02:57:26;14.25;14.25;12.00
77320;PMS7003;66382;52.252;8.780;2024-03-02T02:59:51;18.25;18.25;13.75
77320;PMS7003;66382;52.252;8.780;2024-03-02T03:02:17;16.00;15.00;12.00
77320;PMS7003;66382;52.252;8.780;2024-03-02T03:04:42;14.00;14.00;11.75
77320;PMS7003;66382;52.252;8.780;2024-03-02T03:07:08;15.75;15.75;10.00
77320;PMS7003;66382;52.252;8.780;2024-03-02T03:09:33;15.25;15.25;10.50
77320;PMS7003;66382;52.252;8.780;2024-03-02T03:12:02;19.50;19.50;13.00
77320;PMS7003;66382;52.252;8.780;2024-03-02T03:14:29;16.00;16.00;12.00
77320;PMS7003;66382;52.252;8.780;2024-03-02T03:16:55;16.00;16.00;12.75
77320;PMS7003;66382;52.252;8.780;2024-03-02T03:19:20;18.25;18.25;14.00
77320;PMS7003;66382;52.252;8.780;2024-03-02T03:21:46;19.75;19.75;13.75
77320;PMS7003;66382;52.252;8.780;2024-03-02T03:24:11;21.25;20.00;13.00
77320;PMS7003;66382;52.252;8.780;2024-03-02T03:26:36;17.00;17.00;13.00
77320;PMS7003;66382;52.252;8.780;2024-03-02T03:29:02;19.50;19.50;13.75
77320;PMS7003;66382;52.252;8.780;2024-03-02T03:31:29;19.50;19.50;14.00
77320;PMS7003;66382;52.252;8.780;2024-03-02T03:33:54;20.25;20.25;14.25
77320;PMS7003;66382;52.252;8.780;2024-03-02T03:36:20;20.25;20.25;14.00
77320;PMS7003;66382;52.252;8.780;2024-03-02T03:38:45;19.00;19.00;14.00
77320;PMS7003;66382;52.252;8.780;2024-03-02T03:41:10;18.75;18.75;13.00
77320;PMS7003;66382;52.252;8.780;2024-03-02T03:43:36;19.25;19.25;14.00
77320;PMS7003;66382;52.252;8.780;2024-03-02T03:46:01;18.50;18.50;12.50
77320;PMS7003;66382;52.252;8.780;2024-03-02T03:48:28;19.50;19.50;14.00
77320;PMS7003;66382;52.252;8.780;2024-03-02T03:50:54;20.75;19.25;13.00
77320;PMS7003;66382;52.252;8.780;2024-03-02T03:53:19;17.75;17.75;13.75
77320;PMS7003;66382;52.252;8.780;2024-03-02T03:55:45;22.75;22.00;13.00
77320;PMS7003;66382;52.252;8.780;2024-03-02T03:58:10;17.00;17.00;12.50
77320;PMS7003;66382;52.252;8.780;2024-03-02T04:00:35;21.25;21.00;14.50
77320;PMS7003;66382;52.252;8.780;2024-03-02T04:03:01;19.00;19.00;11.25
77320;PMS7003;66382;52.252;8.780;2024-03-02T04:05:28;22.25;22.25;14.75
77320;PMS7003;66382;52.252;8.780;2024-03-02T04:07:53;20.25;20.25;16.25
77320;PMS7003;66382;52.252;8.780;2024-03-02T04:10:18;23.00;22.50;16.50
77320;PMS7003;66382;52.252;8.780;2024-03-02T04:12:44;19.25;19.25;14.25
77320;PMS7003;66382;52.252;8.780;2024-03-02T04:15:09;23.50;23.50;18.25
77320;PMS7003;66382;52.252;8.780;2024-03-02T04:17:35;25.00;24.50;17.75
77320;PMS7003;66382;52.252;8.780;2024-03-02T04:20:00;15.75;15.75;11.50
77320;PMS7003;66382;52.252;8.780;2024-03-02T04:22:27;21.75;21.75;14.25
77320;PMS7003;66382;52.252;8.780;2024-03-02T04:24:53;21.00;20.00;14.75
77320;PMS7003;66382;52.252;8.780;2024-03-02T04:27:18;23.75;23.00;16.75
77320;PMS7003;66382;52.252;8.780;2024-03-02T04:29:44;20.50;20.50;14.75
77320;PMS7003;66382;52.252;8.780;2024-03-02T04:32:09;22.75;22.75;15.75
77320;PMS7003;66382;52.252;8.780;2024-03-02T04:34:35;25.00;24.25;17.75
77320;PMS7003;66382;52.252;8.780;2024-03-02T04:37:00;26.25;26.25;19.25
77320;PMS7003;66382;52.252;8.780;2024-03-02T04:39:27;25.75;25.75;18.00
77320;PMS7003;66382;52.252;8.780;2024-03-02T04:41:52;25.00;24.75;16.25
77320;PMS7003;66382;52.252;8.780;2024-03-02T04:44:18;28.50;27.75;20.00
77320;PMS7003;66382;52.252;8.780;2024-03-02T04:46:43;27.50;27.50;19.50
77320;PMS7003;66382;52.252;8.780;2024-03-02T04:49:09;22.75;21.75;12.50
77320;PMS7003;66382;52.252;8.780;2024-03-02T04:51:34;33.50;33.25;22.00
77320;PMS7003;66382;52.252;8.780;2024-03-02T04:53:59;35.00;34.00;23.25
77320;PMS7003;66382;52.252;8.780;2024-03-02T04:56:26;31.00;29.25;13.75
77320;PMS7003;66382;52.252;8.780;2024-03-02T04:58:52;36.25;35.00;22.50
77320;PMS7003;66382;52.252;8.780;2024-03-02T05:01:17;36.50;34.00;22.00
77320;PMS7003;66382;52.252;8.780;2024-03-02T05:03:43;24.50;24.50;19.75
77320;PMS7003;66382;52.252;8.780;2024-03-02T05:06:08;28.75;28.75;18.25
77320;PMS7003;66382;52.252;8.780;2024-03-02T05:08:33;26.25;26.25;18.50
77320;PMS7003;66382;52.252;8.780;2024-03-02T05:10:59;29.25;29.25;18.75
77320;PMS7003;66382;52.252;8.780;2024-03-02T05:13:26;28.50;26.50;18.00
77320;PMS7003;66382;52.252;8.780;2024-03-02T05:15:51;26.50;24.50;15.75
77320;PMS7003;66382;52.252;8.780;2024-03-02T05:18:17;25.75;25.75;18.00
77320;PMS7003;66382;52.252;8.780;2024-03-02T05:20:42;28.00;28.00;19.25
77320;PMS7003;66382;52.252;8.780;2024-03-02T05:23:07;27.00;27.00;20.00
77320;PMS7003;66382;52.252;8.780;2024-03-02T05:25:33;25.25;25.25;14.25
77320;PMS7003;66382;52.252;8.780;2024-03-02T05:27:58;27.25;26.00;19.00
77320;PMS7003;66382;52.252;8.780;2024-03-02T05:30:25;24.00;24.00;15.75
77320;PMS7003;66382;52.252;8.780;2024-03-02T05:32:50;29.75;29.25;19.00
77320;PMS7003;66382;52.252;8.780;2024-03-02T05:35:16;27.50;27.50;18.50
77320;PMS7003;66382;52.252;8.780;2024-03-02T05:37:41;24.25;24.25;17.75
77320;PMS7003;66382;52.252;8.780;2024-03-02T05:40:07;28.75;28.75;20.50
77320;PMS7003;66382;52.252;8.780;2024-03-02T05:42:33;30.00;30.00;20.50
77320;PMS7003;66382;52.252;8.780;2024-03-02T05:44:59;31.75;31.75;22.00
77320;PMS7003;66382;52.252;8.780;2024-03-02T05:47:26;32.00;32.00;20.75
77320;PMS7003;66382;52.252;8.780;2024-03-02T05:49:51;28.50;28.50;20.50
77320;PMS7003;66382;52.252;8.780;2024-03-02T05:52:16;29.00;29.00;19.75
77320;PMS7003;66382;52.252;8.780;2024-03-02T05:54:42;30.50;30.00;20.75
77320;PMS7003;66382;52.252;8.780;2024-03-02T05:57:07;30.00;30.00;21.00
77320;PMS7003;66382;52.252;8.780;2024-03-02T05:59:33;29.25;27.75;19.25
77320;PMS7003;66382;52.252;8.780;2024-03-02T06:01:58;30.00;29.00;21.00
77320;PMS7003;66382;52.252;8.780;2024-03-02T06:04:25;30.75;30.75;21.00
77320;PMS7003;66382;52.252;8.780;2024-03-02T06:06:50;29.25;29.25;19.50
77320;PMS7003;66382;52.252;8.780;2024-03-02T06:09:16;32.00;30.00;19.00
77320;PMS7003;66382;52.252;8.780;2024-03-02T06:11:41;31.25;31.25;21.25
77320;PMS7003;66382;52.252;8.780;2024-03-02T06:14:07;30.25;28.25;18.50
77320;PMS7003;66382;52.252;8.780;2024-03-02T06:16:33;28.75;28.75;19.25
77320;PMS7003;66382;52.252;8.780;2024-03-02T06:19:00;27.25;27.25;18.50
77320;PMS7003;66382;52.252;8.780;2024-03-02T06:21:27;30.75;30.75;20.50
77320;PMS7003;66382;52.252;8.780;2024-03-02T06:23:53;39.00;36.25;23.50
77320;PMS7003;66382;52.252;8.780;2024-03-02T06:26:18;30.25;30.00;20.50
77320;PMS7003;66382;52.252;8.780;2024-03-02T06:28:44;31.75;30.50;19.75
77320;PMS7003;66382;52.252;8.780;2024-03-02T06:31:10;29.75;29.75;20.50
77320;PMS7003;66382;52.252;8.780;2024-03-02T06:33:36;27.75;27.25;19.00
77320;PMS7003;66382;52.252;8.780;2024-03-02T06:36:01;41.75;38.25;25.25
77320;PMS7003;66382;52.252;8.780;2024-03-02T06:38:29;29.00;29.00;20.25
77320;PMS7003;66382;52.252;8.780;2024-03-02T06:40:54;33.00;33.00;20.75
77320;PMS7003;66382;52.252;8.780;2024-03-02T06:43:20;34.50;33.25;21.00
77320;PMS7003;66382;52.252;8.780;2024-03-02T06:45:45;24.25;24.25;17.75
77320;PMS7003;66382;52.252;8.780;2024-03-02T06:48:11;30.00;30.00;20.75
77320;PMS7003;66382;52.252;8.780;2024-03-02T06:50:36;29.50;29.50;21.00
77320;PMS7003;66382;52.252;8.780;2024-03-02T06:53:01;29.75;29.75;21.00
77320;PMS7003;66382;52.252;8.780;2024-03-02T06:55:28;32.00;31.00;20.25
77320;PMS7003;66382;52.252;8.780;2024-03-02T06:57:54;32.25;30.50;22.00
77320;PMS7003;66382;52.252;8.780;2024-03-02T07:00:19;31.00;30.75;20.75
77320;PMS7003;66382;52.252;8.780;2024-03-02T07:02:45;30.00;30.00;22.00
77320;PMS7003;66382;52.252;8.780;2024-03-02T07:05:10;35.00;32.25;22.00
77320;PMS7003;66382;52.252;8.780;2024-03-02T07:07:36;31.00;31.00;19.50
77320;PMS7003;66382;52.252;8.780;2024-03-02T07:10:01;30.75;30.75;21.50
77320;PMS7003;66382;52.252;8.780;2024-03-02T07:12:28;32.75;32.75;21.75
77320;PMS7003;66382;52.252;8.780;2024-03-02T07:14:53;24.25;23.00;14.00
77320;PMS7003;66382;52.252;8.780;2024-03-02T07:17:19;36.50;33.50;21.00
77320;PMS7003;66382;52.252;8.780;2024-03-02T07:19:44;30.00;30.00;19.00
77320;PMS7003;66382;52.252;8.780;2024-03-02T07:22:10;33.75;33.00;21.25
77320;PMS7003;66382;52.252;8.780;2024-03-02T07:24:39;31.00;31.00;21.25
77320;PMS7003;66382;52.252;8.780;2024-03-02T07:27:05;29.00;29.00;20.00
77320;PMS7003;66382;52.252;8.780;2024-03-02T07:29:31;36.50;34.00;21.00
77320;PMS7003;66382;52.252;8.780;2024-03-02T07:31:57;30.50;29.50;19.25
77320;PMS7003;66382;52.252;8.780;2024-03-02T07:34:22;33.00;32.00;21.00
77320;PMS7003;66382;52.252;8.780;2024-03-02T07:36:48;28.25;28.25;18.25
77320;PMS7003;66382;52.252;8.780;2024-03-02T07:39:13;34.00;33.00;20.25
77320;PMS7003;66382;52.252;8.780;2024-03-02T07:41:39;34.50;33.00;21.25
77320;PMS7003;66382;52.252;8.780;2024-03-02T07:44:04;30.75;30.75;20.00
77320;PMS7003;66382;52.252;8.780;2024-03-02T07:46:31;27.75;27.75;19.00
77320;PMS7003;66382;52.252;8.780;2024-03-02T07:48:57;26.25;26.25;19.50
77320;PMS7003;66382;52.252;8.780;2024-03-02T07:51:22;27.50;27.50;19.50
77320;PMS7003;66382;52.252;8.780;2024-03-02T07:53:48;31.50;30.25;20.00
77320;PMS7003;66382;52.252;8.780;2024-03-02T07:56:13;28.50;28.50;19.25
77320;PMS7003;66382;52.252;8.780;2024-03-02T07:58:38;22.50;22.50;13.75
77320;PMS7003;66382;52.252;8.780;2024-03-02T08:01:04;25.00;25.00;19.25
77320;PMS7003;66382;52.252;8.780;2024-03-02T08:03:31;32.50;32.00;20.50
77320;PMS7003;66382;52.252;8.780;2024-03-02T08:05:56;29.00;28.25;18.25
77320;PMS7003;66382;52.252;8.780;2024-03-02T08:08:22;26.50;26.50;18.00
77320;PMS7003;66382;52.252;8.780;2024-03-02T08:10:47;25.25;25.00;15.75
77320;PMS7003;66382;52.252;8.780;2024-03-02T08:13:13;28.25;28.25;16.50
77320;PMS7003;66382;52.252;8.780;2024-03-02T08:15:38;30.25;30.25;17.75
77320;PMS7003;66382;52.252;8.780;2024-03-02T08:18:04;30.75;28.50;18.25
77320;PMS7003;66382;52.252;8.780;2024-03-02T08:20:31;18.25;18.25;14.75
77320;PMS7003;66382;52.252;8.780;2024-03-02T08:22:57;25.75;25.75;18.00
77320;PMS7003;66382;52.252;8.780;2024-03-02T08:25:22;30.50;28.25;18.25
77320;PMS7003;66382;52.252;8.780;2024-03-02T08:27:48;27.50;27.25;18.50
77320;PMS7003;66382;52.252;8.780;2024-03-02T08:30:13;27.50;27.50;19.25
77320;PMS7003;66382;52.252;8.780;2024-03-02T08:32:39;23.50;23.50;17.50
77320;PMS7003;66382;52.252;8.780;2024-03-02T08:35:05;24.00;23.50;17.25
77320;PMS7003;66382;52.252;8.780;2024-03-02T08:37:33;23.75;23.75;16.50
77320;PMS7003;66382;52.252;8.780;2024-03-02T08:39:58;22.00;22.00;15.50
77320;PMS7003;66382;52.252;8.780;2024-03-02T08:42:24;23.50;23.50;14.50
77320;PMS7003;66382;52.252;8.780;2024-03-02T08:44:50;25.50;25.50;17.75
77320;PMS7003;66382;52.252;8.780;2024-03-02T08:47:15;22.00;22.00;15.00
77320;PMS7003;66382;52.252;8.780;2024-03-02T08:49:41;25.00;22.00;16.67
77320;PMS7003;66382;52.252;8.780;2024-03-02T08:52:06;21.75;21.75;17.00
77320;PMS7003;66382;52.252;8.780;2024-03-02T08:54:33;20.33;20.33;15.33
77320;PMS7003;66382;52.252;8.780;2024-03-02T08:56:58;17.00;17.00;11.00
77320;PMS7003;66382;52.252;8.780;2024-03-02T08:59:24;21.67;21.67;14.67
77320;PMS7003;66382;52.252;8.780;2024-03-02T09:01:50;12.67;12.67;9.67
77320;PMS7003;66382;52.252;8.780;2024-03-02T09:04:15;20.33;20.33;15.00
77320;PMS7003;66382;52.252;8.780;2024-03-02T09:06:41;14.33;14.33;12.00
77320;PMS7003;66382;52.252;8.780;2024-03-02T09:09:06;18.67;18.67;13.67
77320;PMS7003;66382;52.252;8.780;2024-03-02T09:11:33;19.33;19.33;14.33
77320;PMS7003;66382;52.252;8.780;2024-03-02T09:13:59;15.25;15.25;12.25
77320;PMS7003;66382;52.252;8.780;2024-03-02T09:16:24;18.33;18.33;12.00
77320;PMS7003;66382;52.252;8.780;2024-03-02T09:18:50;15.67;15.67;10.67
77320;PMS7003;66382;52.252;8.780;2024-03-02T09:21:15;17.00;17.00;13.33
77320;PMS7003;66382;52.252;8.780;2024-03-02T09:23:41;18.00;18.00;14.33
77320;PMS7003;66382;52.252;8.780;2024-03-02T09:26:06;15.33;15.33;11.00
77320;PMS7003;66382;52.252;8.780;2024-03-02T09:28:33;17.33;17.33;13.33
77320;PMS7003;66382;52.252;8.780;2024-03-02T09:31:00;11.25;11.25;8.25
77320;PMS7003;66382;52.252;8.780;2024-03-02T09:33:26;15.00;15.00;12.00
77320;PMS7003;66382;52.252;8.780;2024-03-02T09:35:51;16.00;16.00;12.00
77320;PMS7003;66382;52.252;8.780;2024-03-02T09:38:17;16.00;16.00;11.67
77320;PMS7003;66382;52.252;8.780;2024-03-02T09:40:42;16.33;16.33;11.33
77320;PMS7003;66382;52.252;8.780;2024-03-02T09:43:08;14.67;14.67;11.33
77320;PMS7003;66382;52.252;8.780;2024-03-02T09:45:35;15.00;15.00;11.50
77320;PMS7003;66382;52.252;8.780;2024-03-02T09:48:01;15.75;15.75;12.75
77320;PMS7003;66382;52.252;8.780;2024-03-02T09:50:27;15.33;15.33;12.67
77320;PMS7003;66382;52.252;8.780;2024-03-02T09:52:53;15.00;15.00;12.33
77320;PMS7003;66382;52.252;8.780;2024-03-02T09:55:18;16.00;16.00;10.00
77320;PMS7003;66382;52.252;8.780;2024-03-02T09:57:44;12.33;12.33;10.33
77320;PMS7003;66382;52.252;8.780;2024-03-02T10:00:10;16.50;16.50;12.50
77320;PMS7003;66382;52.252;8.780;2024-03-02T10:02:38;11.25;11.25;8.25
77320;PMS7003;66382;52.252;8.780;2024-03-02T10:05:03;14.25;14.25;11.25
77320;PMS7003;66382;52.252;8.780;2024-03-02T10:07:29;14.00;14.00;9.67
77320;PMS7003;66382;52.252;8.780;2024-03-02T10:09:54;16.00;16.00;11.33
77320;PMS7003;66382;52.252;8.780;2024-03-02T10:12:20;12.67;12.67;8.67
77320;PMS7003;66382;52.252;8.780;2024-03-02T10:14:45;12.33;12.33;8.33
77320;PMS7003;66382;52.252;8.780;2024-03-02T10:17:11;11.33;11.33;10.00
77320;PMS7003;66382;52.252;8.780;2024-03-02T10:19:39;14.25;14.25;10.25
77320;PMS7003;66382;52.252;8.780;2024-03-02T10:22:05;12.50;12.25;9.00
77320;PMS7003;66382;52.252;8.780;2024-03-02T10:24:35;10.75;10.75;8.75
77320;PMS7003;66382;52.252;8.780;2024-03-02T10:27:02;9.75;9.75;8.00
77320;PMS7003;66382;52.252;8.780;2024-03-02T10:29:31;12.00;10.25;8.00
77320;PMS7003;66382;52.252;8.780;2024-03-02T10:31:56;9.33;9.33;7.67
77320;PMS7003;66382;52.252;8.780;2024-03-02T10:34:22;11.67;11.67;9.00
77320;PMS7003;66382;52.252;8.780;2024-03-02T10:36:49;10.00;10.00;8.00
77320;PMS7003;66382;52.252;8.780;2024-03-02T10:39:14;11.75;11.75;9.00
77320;PMS7003;66382;52.252;8.780;2024-03-02T10:41:40;15.33;14.67;11.00
77320;PMS7003;66382;52.252;8.780;2024-03-02T10:44:06;10.00;10.00;7.50
77320;PMS7003;66382;52.252;8.780;2024-03-02T10:46:34;13.25;13.25;9.75
77320;PMS7003;66382;52.252;8.780;2024-03-02T10:49:00;14.50;13.75;9.75
77320;PMS7003;66382;52.252;8.780;2024-03-02T10:51:27;12.00;12.00;9.50
77320;PMS7003;66382;52.252;8.780;2024-03-02T10:53:54;11.75;11.75;8.50
77320;PMS7003;66382;52.252;8.780;2024-03-02T10:56:21;13.25;13.25;10.50
77320;PMS7003;66382;52.252;8.780;2024-03-02T10:58:52;12.00;12.00;9.25
77320;PMS7003;66382;52.252;8.780;2024-03-02T11:01:26;14.75;14.75;10.75
77320;PMS7003;66382;52.252;8.780;2024-03-02T11:03:54;11.75;11.75;8.25
77320;PMS7003;66382;52.252;8.780;2024-03-02T11:06:21;13.25;13.25;8.25
77320;PMS7003;66382;52.252;8.780;2024-03-02T11:08:48;12.50;12.50;9.75
77320;PMS7003;66382;52.252;8.780;2024-03-02T11:11:19;12.50;12.50;10.00
77320;PMS7003;66382;52.252;8.780;2024-03-02T11:13:51;12.25;12.25;10.00
77320;PMS7003;66382;52.252;8.780;2024-03-02T11:16:22;11.75;11.75;8.00
77320;PMS7003;66382;52.252;8.780;2024-03-02T11:18:57;14.50;14.50;11.25
77320;PMS7003;66382;52.252;8.780;2024-03-02T11:21:22;13.00;13.00;10.33
77320;PMS7003;66382;52.252;8.780;2024-03-02T11:23:48;17.00;17.00;10.33
77320;PMS7003;66382;52.252;8.780;2024-03-02T11:26:16;16.33;16.33;11.67
77320;PMS7003;66382;52.252;8.780;2024-03-02T11:28:44;14.00;14.00;9.75
77320;PMS7003;66382;52.252;8.780;2024-03-02T11:31:10;13.67;13.67;10.67
77320;PMS7003;66382;52.252;8.780;2024-03-02T11:33:35;13.00;13.00;8.33
77320;PMS7003;66382;52.252;8.780;2024-03-02T11:36:00;13.33;13.33;11.33
77320;PMS7003;66382;52.252;8.780;2024-03-02T11:38:27;15.67;15.67;11.33
77320;PMS7003;66382;52.252;8.780;2024-03-02T11:40:54;13.75;13.75;10.25
77320;PMS7003;66382;52.252;8.780;2024-03-02T11:43:22;16.00;16.00;12.33
77320;PMS7003;66382;52.252;8.780;2024-03-02T11:45:47;13.00;12.75;9.75
77320;PMS7003;66382;52.252;8.780;2024-03-02T11:48:13;13.67;13.67;10.33
77320;PMS7003;66382;52.252;8.780;2024-03-02T11:50:40;11.25;11.25;8.50
77320;PMS7003;66382;52.252;8.780;2024-03-02T11:53:08;10.25;10.25;8.00
77320;PMS7003;66382;52.252;8.780;2024-03-02T11:55:34;11.75;11.75;7.75
77320;PMS7003;66382;52.252;8.780;2024-03-02T11:58:00;14.00;14.00;11.00
77320;PMS7003;66382;52.252;8.780;2024-03-02T12:00:28;11.25;11.25;9.50
77320;PMS7003;66382;52.252;8.780;2024-03-02T12:02:59;10.75;10.75;7.25
77320;PMS7003;66382;52.252;8.780;2024-03-02T12:05:26;12.25;12.25;9.25
77320;PMS7003;66382;52.252;8.780;2024-03-02T12:07:54;9.00;9.00;6.67
77320;PMS7003;66382;52.252;8.780;2024-03-02T12:10:21;10.50;10.50;8.00
77320;PMS7003;66382;52.252;8.780;2024-03-02T12:12:47;10.67;10.67;7.00
77320;PMS7003;66382;52.252;8.780;2024-03-02T12:15:12;9.33;9.33;7.00
77320;PMS7003;66382;52.252;8.780;2024-03-02T12:17:39;10.00;10.00;7.67
77320;PMS7003;66382;52.252;8.780;2024-03-02T12:20:04;6.75;6.75;5.50
77320;PMS7003;66382;52.252;8.780;2024-03-02T12:22:30;9.33;9.33;7.33
77320;PMS7003;66382;52.252;8.780;2024-03-02T12:24:56;6.67;6.67;4.00
77320;PMS7003;66382;52.252;8.780;2024-03-02T12:27:21;9.33;9.33;8.33
77320;PMS7003;66382;52.252;8.780;2024-03-02T12:29:47;8.67;8.67;7.00
77320;PMS7003;66382;52.252;8.780;2024-03-02T12:32:13;11.25;11.25;8.50
77320;PMS7003;66382;52.252;8.780;2024-03-02T12:34:41;12.25;12.25;10.75
77320;PMS7003;66382;52.252;8.780;2024-03-02T12:37:06;12.75;12.75;9.50
77320;PMS7003;66382;52.252;8.780;2024-03-02T12:39:31;11.00;11.00;8.33
77320;PMS7003;66382;52.252;8.780;2024-03-02T12:41:57;11.33;11.33;7.33
77320;PMS7003;66382;52.252;8.780;2024-03-02T12:44:22;9.67;9.67;7.67
77320;PMS7003;66382;52.252;8.780;2024-03-02T12:46:48;11.00;11.00;8.33
77320;PMS7003;66382;52.252;8.780;2024-03-02T12:49:14;11.33;11.33;9.33
77320;PMS7003;66382;52.252;8.780;2024-03-02T12:51:41;12.00;12.00;7.25
77320;PMS7003;66382;52.252;8.780;2024-03-02T12:54:07;9.50;9.50;7.25
77320;PMS7003;66382;52.252;8.780;2024-03-02T12:56:34;10.50;10.50;8.75
77320;PMS7003;66382;52.252;8.780;2024-03-02T12:59:00;10.00;10.00;6.50
77320;PMS7003;66382;52.252;8.780;2024-03-02T13:01:26;10.00;10.00;7.75
77320;PMS7003;66382;52.252;8.780;2024-03-02T13:03:52;11.00;11.00;9.00
77320;PMS7003;66382;52.252;8.780;2024-03-02T13:06:18;10.00;10.00;9.00
77320;PMS7003;66382;52.252;8.780;2024-03-02T13:08:46;10.50;10.50;8.25
77320;PMS7003;66382;52.252;8.780;2024-03-02T13:11:11;11.00;11.00;10.00
77320;PMS7003;66382;52.252;8.780;2024-03-02T13:13:38;9.25;9.25;7.25
77320;PMS7003;66382;52.252;8.780;2024-03-02T13:16:04;10.75;10.75;8.50
77320;PMS7003;66382;52.252;8.780;2024-03-02T13:18:33;11.75;11.50;9.50
77320;PMS7003;66382;52.252;8.780;2024-03-02T13:20:58;11.00;11.00;7.00
77320;PMS7003;66382;52.252;8.780;2024-03-02T13:23:24;9.33;9.33;7.00
77320;PMS7003;66382;52.252;8.780;2024-03-02T13:25:50;12.00;12.00;9.00
77320;PMS7003;66382;52.252;8.780;2024-03-02T13:28:16;9.00;9.00;7.25
77320;PMS7003;66382;52.252;8.780;2024-03-02T13:30:41;9.33;9.33;7.33
77320;PMS7003;66382;52.252;8.780;2024-03-02T13:33:07;12.00;12.00;9.00
77320;PMS7003;66382;52.252;8.780;2024-03-02T13:35:32;10.00;10.00;7.67
77320;PMS7003;66382;52.252;8.780;2024-03-02T13:37:58;9.00;9.00;6.67
77320;PMS7003;66382;52.252;8.780;2024-03-02T13:40:23;12.67;12.67;10.00
77320;PMS7003;66382;52.252;8.780;2024-03-02T13:42:50;7.00;7.00;6.00